Главная страница
METAR-TAF:

METAR-TAF

Аэропорты :

Люксембург-Финдел

Люксембург, Люксембург

широта: 49-37N, долгота: 006-13E, высота над уровнем моря: 376 м

Текущие метеонаблюдения

Эта сводка был подготовлена 34 минут назад, в 05:20 UTC
Ветер 8 Узел от северный, изменяющийся между северо-западный и северо-северо-восточный
Температура 13°C
Влажность 88%
Давление 1023 hPa
Видимость 10 км и более
Отдельные облака на высоте 1300 фута
Рассеянная облачность на высоте 2100 фута

METAR: ELLX 250520Z 35008KT 310V030 9999 SCT013 BKN021 13/11 Q1023 NOSIG

Время: 07:54 (05:54 UTC)

Прогноз

Эта сводка был подготовлена 54 минут назад, в 05:00 UTC
Прогноз действительный с 25-го 06 UTC до 26-го 12 UTC
Ветер 7 Узел от северный
Видимость 10 км и более
Отдельные облака на высоте 1200 фута
Рассеянная облачность на высоте 1400 фута
изменения
С 25-го 08 UTC до 25-го 11 UTC
Рассеянная облачность на высоте 4000 фута

TAF: ELLX 250500Z 2506/2612 36007KT 9999 SCT012 BKN014 BECMG 2508/2511 BKN040

Метеонаблюдения и прогнозы для более 4000 аэропортов (сводки METAR и TAF).

Имеющиеся станции представлены на карте желтыми и красными точками.

Чтобы увидеть название станции, наведите на нее мышь.

Затем щелкните, чтобы увидеть метеонаблюдения и метеопрогнозы.

Управление картой: чтобы увеличить масштаб, щелкните зеленые кнопки с черным крестиком; чтобы уменьшить масштаб, щелкните зеленую кнопку с тире; для просмотра соседних карт щелкайте зеленые стрелки.


METAR-TAF: